Time;durP1;ratioP1;P1;durP2;ratioP2;P2;SDS_P1;SDS_P2;PMS_P1;PMS_P2;Temp;Humidity;BMP_temperature;BMP_pressure;BME280_temperature;BME280_humidity;BME280_pressure;Samples;Min_cycle;Max_cycle;Signal;HPM_P1;HPM_P2
2023/12/31 00:01:04;;;;;;;8.30;5.35;;;;;;;-1.92;100.00;97738.06;1224946;75;2914584;-65
2023/12/31 00:03:37;;;;;;;6.35;4.85;;;;;;;-1.88;100.00;97732.66;1224664;75;2921026;-65
2023/12/31 00:06:10;;;;;;;6.60;4.80;;;;;;;-1.94;100.00;97733.06;1224512;75;2937520;-65
2023/12/31 00:08:43;;;;;;;7.00;5.05;;;;;;;-2.10;100.00;97727.38;1224321;75;2925183;-63
2023/12/31 00:11:18;;;;;;;6.85;4.75;;;;;;;-2.05;100.00;97728.91;1224496;75;2919771;-65
2023/12/31 00:13:51;;;;;;;6.80;5.05;;;;;;;-2.13;100.00;97727.41;1224674;75;2922502;-64
2023/12/31 00:16:24;;;;;;;7.50;5.50;;;;;;;-2.13;100.00;97712.09;1223396;75;2918307;-65
2023/12/31 00:18:57;;;;;;;6.70;4.55;;;;;;;-2.17;100.00;97719.38;1224706;75;2922002;-63
2023/12/31 00:21:30;;;;;;;6.55;4.35;;;;;;;-2.15;100.00;97704.41;1223931;75;2916532;-63
2023/12/31 00:24:03;;;;;;;6.45;4.35;;;;;;;-2.17;100.00;97706.72;1224357;75;2915061;-63
2023/12/31 00:26:38;;;;;;;5.70;3.90;;;;;;;-2.14;100.00;97705.19;1224760;75;2922735;-64
2023/12/31 00:29:11;;;;;;;5.60;3.90;;;;;;;-2.19;100.00;97708.25;1224067;75;2919394;-65
2023/12/31 00:31:44;;;;;;;6.05;4.05;;;;;;;-2.39;100.00;97694.56;1224274;75;2920854;-62
2023/12/31 00:34:17;;;;;;;7.20;5.40;;;;;;;-2.44;100.00;97703.75;1224424;75;2917080;-61
2023/12/31 00:36:49;;;;;;;9.05;6.10;;;;;;;-2.49;100.00;97698.03;1224541;75;2919712;-63
2023/12/31 00:39:22;;;;;;;7.50;5.70;;;;;;;-2.39;100.00;97687.28;1224332;75;2915207;-64
2023/12/31 00:41:58;;;;;;;7.90;5.50;;;;;;;-2.34;100.00;97686.09;1224335;75;2923047;-64
2023/12/31 00:44:31;;;;;;;6.60;5.15;;;;;;;-2.28;100.00;97681.13;1224452;75;2923131;-61
2023/12/31 00:47:03;;;;;;;5.70;4.60;;;;;;;-2.23;100.00;97673.44;1224730;75;2894042;-63
2023/12/31 00:49:36;;;;;;;5.55;3.95;;;;;;;-2.33;100.00;97670.78;1221968;75;2967735;-67
2023/12/31 00:52:10;;;;;;;6.25;3.70;;;;;;;-2.27;100.00;97664.63;1223111;75;2923168;-63
2023/12/31 00:54:42;;;;;;;7.70;3.85;;;;;;;-2.33;100.00;97660.06;1225263;68;2919632;-63
2023/12/31 00:57:18;;;;;;;5.45;3.65;;;;;;;-2.30;100.00;97654.69;1222862;75;2923708;-62
2023/12/31 00:59:51;;;;;;;4.05;2.90;;;;;;;-2.32;100.00;97659.69;1224658;75;2922351;-64
2023/12/31 01:02:24;;;;;;;4.75;4.00;;;;;;;-2.54;100.00;97656.31;1224582;67;2917803;-64
2023/12/31 01:04:57;;;;;;;7.35;4.85;;;;;;;-2.52;100.00;97659.38;1225119;75;2925877;-64
2023/12/31 01:07:29;;;;;;;6.45;4.30;;;;;;;-2.48;100.00;97657.44;1224696;75;2922087;-63
2023/12/31 01:10:03;;;;;;;5.35;3.90;;;;;;;-2.42;100.00;97645.16;1224967;75;2918834;-63
2023/12/31 01:12:38;;;;;;;5.90;3.50;;;;;;;-2.44;100.00;97639.41;1224485;75;2917426;-64
2023/12/31 01:15:12;;;;;;;6.05;4.15;;;;;;;-2.52;100.00;97647.91;1224445;75;2919840;-65
2023/12/31 01:17:45;;;;;;;6.70;4.70;;;;;;;-2.57;100.00;97646.38;1224657;75;2918516;-63
2023/12/31 01:20:18;;;;;;;7.35;4.85;;;;;;;-2.57;100.00;97649.06;1223957;75;2935219;-65
2023/12/31 01:22:51;;;;;;;7.80;5.35;;;;;;;-2.48;100.00;97641.34;1224737;75;2916697;-63
2023/12/31 01:25:23;;;;;;;6.65;4.45;;;;;;;-2.56;100.00;97650.56;1224860;75;2918938;-62
2023/12/31 01:27:59;;;;;;;8.85;6.15;;;;;;;-2.62;100.00;97650.22;1222873;75;2920917;-64
2023/12/31 01:30:32;;;;;;;9.35;5.85;;;;;;;-2.61;100.00;97657.09;1224287;75;2928156;-65
2023/12/31 01:33:05;;;;;;;8.45;5.50;;;;;;;-2.58;100.00;97660.91;1224592;75;2927182;-62
2023/12/31 01:35:38;;;;;;;8.60;6.20;;;;;;;-2.54;100.00;97658.22;1224218;75;2921961;-64
2023/12/31 01:38:10;;;;;;;10.00;7.25;;;;;;;-2.50;100.00;97658.97;1224983;75;2892857;-63
2023/12/31 01:40:43;;;;;;;9.30;5.80;;;;;;;-2.42;100.00;97661.25;1224940;75;2917603;-66
2023/12/31 01:43:21;;;;;;;6.35;5.00;;;;;;;-2.39;100.00;97662.38;1224450;75;2929435;-64
2023/12/31 01:45:54;;;;;;;8.00;6.00;;;;;;;-2.40;100.00;97655.50;1224845;75;2919896;-65
2023/12/31 01:48:27;;;;;;;9.60;6.20;;;;;;;-2.45;100.00;97654.00;1223693;83;2920527;-64
2023/12/31 01:51:01;;;;;;;8.65;6.30;;;;;;;-2.46;100.00;97657.81;1224694;75;2924643;-63
2023/12/31 01:53:34;;;;;;;8.45;6.50;;;;;;;-2.45;100.00;97656.66;1224521;75;2921192;-64
2023/12/31 01:56:08;;;;;;;8.30;6.00;;;;;;;-2.42;100.00;97649.75;1222791;75;2918832;-64
2023/12/31 01:58:44;;;;;;;7.55;5.35;;;;;;;-2.38;100.00;97645.91;1224141;75;2923297;-65
2023/12/31 02:01:18;;;;;;;6.90;5.25;;;;;;;-2.47;100.00;97644.81;1224409;75;2928690;-63
2023/12/31 02:03:51;;;;;;;8.30;5.50;;;;;;;-2.53;100.00;97641.75;1223518;75;2925985;-64
2023/12/31 02:06:24;;;;;;;6.70;5.25;;;;;;;-2.52;100.00;97639.84;1224139;75;2918730;-61
2023/12/31 02:08:57;;;;;;;6.65;4.85;;;;;;;-2.64;100.00;97639.13;1223983;75;2917383;-64
2023/12/31 02:11:29;;;;;;;7.80;5.90;;;;;;;-2.62;100.00;97630.69;1224416;75;2926473;-63
2023/12/31 02:14:05;;;;;;;7.15;5.65;;;;;;;-2.56;100.00;97637.16;1225060;75;2914417;-62
2023/12/31 02:16:38;;;;;;;6.75;5.15;;;;;;;-2.57;100.00;97625.69;1224169;75;2921332;-63
2023/12/31 02:19:11;;;;;;;6.90;4.80;;;;;;;-2.58;100.00;97621.47;1224601;75;2922277;-62
2023/12/31 02:21:45;;;;;;;6.70;4.85;;;;;;;-2.63;100.00;97613.06;1224730;75;2925106;-66
2023/12/31 02:24:22;;;;;;;6.35;4.60;;;;;;;-2.64;100.00;97608.88;1224428;75;2916576;-63
2023/12/31 02:26:57;;;;;;;7.30;4.50;;;;;;;-2.70;100.00;97605.81;1224463;75;2917644;-64
2023/12/31 02:29:30;;;;;;;6.20;4.50;;;;;;;-2.76;100.00;97596.69;1224408;75;2931410;-62
2023/12/31 02:32:03;;;;;;;7.50;5.45;;;;;;;-2.86;100.00;97590.19;1224051;75;2918638;-64
2023/12/31 02:34:36;;;;;;;9.25;6.30;;;;;;;-2.99;100.00;97581.03;1224875;75;2921994;-64
2023/12/31 02:37:08;;;;;;;8.90;6.50;;;;;;;-2.87;100.00;97575.25;1224503;75;2925742;-63
2023/12/31 02:39:41;;;;;;;9.15;6.95;;;;;;;-3.04;100.00;97573.41;1224501;75;2932030;-63
2023/12/31 02:42:17;;;;;;;13.15;8.50;;;;;;;-3.06;100.00;97567.66;1224300;75;2933463;-66
2023/12/31 02:44:50;;;;;;;12.15;8.70;;;;;;;-3.21;100.00;97566.94;1224355;75;2930302;-63
2023/12/31 02:47:23;;;;;;;11.60;8.05;;;;;;;-2.89;100.00;97571.44;1224728;75;2913548;-63
2023/12/31 02:49:55;;;;;;;10.15;7.50;;;;;;;-2.93;100.00;97566.13;1224573;75;2923626;-63
2023/12/31 02:52:29;;;;;;;13.25;7.25;;;;;;;-3.00;100.00;97561.53;1224772;75;2926324;-63
2023/12/31 02:55:02;;;;;;;7.95;6.15;;;;;;;-2.87;100.00;97556.50;1224266;75;2922717;-66
2023/12/31 02:57:37;;;;;;;6.80;5.15;;;;;;;-2.84;100.00;97552.28;1224302;75;2920201;-64
2023/12/31 03:00:12;;;;;;;5.95;4.45;;;;;;;-2.81;100.00;97554.22;1224248;75;2907743;-61
2023/12/31 03:02:44;;;;;;;5.15;3.90;;;;;;;-2.84;100.00;97547.72;1224022;75;2922367;-64
2023/12/31 03:05:17;;;;;;;5.00;3.55;;;;;;;-2.89;100.00;97541.97;1224336;75;2928350;-66
2023/12/31 03:07:50;;;;;;;5.45;3.80;;;;;;;-2.88;100.00;97535.50;1224854;75;2919507;-65
2023/12/31 03:10:23;;;;;;;5.65;3.95;;;;;;;-3.01;100.00;97537.81;1223921;75;2917867;-65
2023/12/31 03:12:58;;;;;;;6.00;4.45;;;;;;;-2.95;100.00;97528.25;1225044;75;2917159;-64
2023/12/31 03:15:32;;;;;;;5.40;3.40;;;;;;;-2.93;100.00;97522.50;1223974;75;2923466;-65
2023/12/31 03:18:05;;;;;;;5.45;3.90;;;;;;;-3.04;100.00;97523.28;1224783;75;2926463;-65
2023/12/31 03:20:38;;;;;;;8.35;5.40;;;;;;;-3.08;100.00;97519.88;1224870;75;2922261;-62
2023/12/31 03:23:11;;;;;;;9.45;6.45;;;;;;;-3.01;100.00;97514.50;1224135;75;2930057;-63
2023/12/31 03:25:44;;;;;;;7.65;4.85;;;;;;;-3.03;100.00;97516.00;1224500;75;2913508;-63
2023/12/31 03:28:19;;;;;;;8.75;4.45;;;;;;;-3.08;100.00;97521.78;1224646;75;2922697;-64
2023/12/31 03:30:52;;;;;;;4.90;3.85;;;;;;;-3.11;100.00;97522.56;1225542;75;2921395;-65
2023/12/31 03:33:25;;;;;;;4.75;3.40;;;;;;;-3.06;100.00;97522.16;1224756;75;2929450;-64
2023/12/31 03:35:58;;;;;;;4.95;3.90;;;;;;;-3.12;100.00;97511.09;1224344;75;2922934;-63
2023/12/31 03:38:31;;;;;;;4.80;3.80;;;;;;;-3.14;100.00;97513.38;1225049;75;2919406;-64
2023/12/31 03:41:04;;;;;;;5.00;3.85;;;;;;;-3.26;100.00;97517.25;1224669;75;2908833;-63
2023/12/31 03:43:40;;;;;;;6.05;4.30;;;;;;;-3.29;100.00;97506.56;1224874;75;2910968;-62
2023/12/31 03:46:13;;;;;;;5.60;4.00;;;;;;;-3.14;100.00;97507.28;1224581;75;2920608;-63
2023/12/31 03:48:46;;;;;;;4.95;3.35;;;;;;;-3.14;100.00;97502.69;1224525;75;2916557;-63
2023/12/31 03:51:19;;;;;;;4.40;3.40;;;;;;;-3.15;100.00;97506.50;1224632;75;2928673;-64
2023/12/31 03:53:51;;;;;;;5.15;3.50;;;;;;;-3.15;100.00;97500.38;1224019;75;2927584;-62
2023/12/31 03:56:24;;;;;;;3.80;2.70;;;;;;;-3.16;100.00;97501.53;1224344;75;2919083;-64
2023/12/31 03:59:00;;;;;;;4.00;3.00;;;;;;;-3.18;100.00;97503.84;1225304;75;2920278;-66
2023/12/31 04:01:32;;;;;;;4.45;3.05;;;;;;;-3.22;100.00;97499.25;1224384;75;2919186;-63
2023/12/31 04:04:05;;;;;;;6.15;3.65;;;;;;;-3.28;100.00;97498.13;1223557;75;2920698;-66
2023/12/31 04:06:38;;;;;;;8.30;5.20;;;;;;;-3.32;100.00;97501.97;1221946;75;2929540;-66
2023/12/31 04:09:11;;;;;;;10.00;4.90;;;;;;;-3.36;100.00;97495.88;1224683;75;2931759;-61
2023/12/31 04:11:44;;;;;;;8.55;5.50;;;;;;;-3.34;100.00;97501.56;1224259;75;2917223;-64
2023/12/31 04:14:19;;;;;;;11.40;6.50;;;;;;;-3.40;100.00;97498.53;1224444;75;2926178;-65
2023/12/31 04:16:52;;;;;;;7.20;5.35;;;;;;;-3.19;100.00;97495.06;1224908;75;2921640;-64
2023/12/31 04:19:25;;;;;;;9.55;5.35;;;;;;;-3.23;100.00;97494.28;1224536;75;2923490;-66
2023/12/31 04:21:58;;;;;;;9.70;5.85;;;;;;;-3.38;100.00;97498.16;1224335;75;2922014;-64
2023/12/31 04:24:31;;;;;;;8.35;5.45;;;;;;;-3.30;100.00;97491.63;1224480;75;2939835;-64
2023/12/31 04:27:03;;;;;;;7.90;4.85;;;;;;;-3.24;100.00;97495.44;1223957;75;2913542;-66
2023/12/31 04:29:39;;;;;;;7.90;5.60;;;;;;;-3.48;100.00;97494.38;1223437;75;2958048;-63
2023/12/31 04:32:12;;;;;;;10.85;7.10;;;;;;;-3.55;100.00;97486.34;1224514;75;2925894;-63
2023/12/31 04:34:45;;;;;;;8.85;5.85;;;;;;;-3.38;100.00;97474.84;1223948;75;2913580;-60
2023/12/31 04:37:19;;;;;;;8.95;6.30;;;;;;;-3.56;100.00;97488.28;1223644;75;2937698;-66
2023/12/31 04:39:52;;;;;;;11.15;7.65;;;;;;;-3.64;100.00;97489.41;1224821;75;2924042;-64
2023/12/31 04:42:25;;;;;;;13.05;8.95;;;;;;;-3.47;100.00;97485.94;1223509;75;2927914;-65
2023/12/31 04:45:04;;;;;;;11.10;7.55;;;;;;;-3.53;100.00;97479.47;1222965;75;2921575;-63
2023/12/31 04:47:38;;;;;;;10.10;7.30;;;;;;;-3.38;100.00;97472.16;1223918;75;2922419;-62
2023/12/31 04:50:12;;;;;;;7.85;5.75;;;;;;;-3.35;100.00;97470.63;1224211;75;2919929;-64
2023/12/31 04:52:45;;;;;;;8.00;5.60;;;;;;;-3.38;100.00;97469.47;1224147;75;2917473;-64
2023/12/31 04:55:18;;;;;;;7.05;4.80;;;;;;;-3.43;100.00;97473.31;1224219;75;2925055;-64
2023/12/31 04:57:51;;;;;;;7.50;4.90;;;;;;;-3.40;100.00;97461.06;1224149;75;2931012;-64
2023/12/31 05:00:26;;;;;;;6.15;4.50;;;;;;;-3.53;100.00;97463.41;1223925;75;2917660;-62
2023/12/31 05:02:59;;;;;;;7.10;4.60;;;;;;;-3.44;100.00;97457.63;1224136;75;2920268;-64
2023/12/31 05:05:32;;;;;;;5.75;4.35;;;;;;;-3.48;100.00;97455.00;1224270;75;2928242;-63
2023/12/31 05:08:05;;;;;;;4.90;3.70;;;;;;;-3.51;100.00;97447.75;1224075;75;2920644;-63
2023/12/31 05:10:40;;;;;;;4.85;4.20;;;;;;;-3.41;100.00;97450.78;1224079;75;2923222;-63
2023/12/31 05:13:13;;;;;;;6.10;3.95;;;;;;;-3.43;100.00;97443.88;1223821;75;2926732;-62
2023/12/31 05:15:48;;;;;;;4.60;3.30;;;;;;;-3.37;100.00;97440.81;1223720;75;2921634;-63
2023/12/31 05:18:21;;;;;;;4.90;3.45;;;;;;;-3.41;100.00;97430.13;1224432;75;2919287;-64
2023/12/31 05:20:54;;;;;;;4.75;3.45;;;;;;;-3.43;100.00;97435.09;1223967;75;2924397;-64
2023/12/31 05:23:27;;;;;;;5.50;3.90;;;;;;;-3.54;100.00;97435.13;1223580;75;2934079;-64
2023/12/31 05:26:00;;;;;;;6.25;5.20;;;;;;;-3.67;100.00;97436.69;1224549;75;2922107;-63
2023/12/31 05:28:33;;;;;;;8.95;5.85;;;;;;;-3.64;100.00;97438.59;1223756;75;2925681;-66
2023/12/31 05:31:08;;;;;;;9.20;6.20;;;;;;;-3.43;100.00;97430.50;1224306;75;2928470;-65
2023/12/31 05:33:43;;;;;;;6.90;4.60;;;;;;;-3.36;100.00;97427.03;1224588;75;2922483;-63
2023/12/31 05:36:16;;;;;;;9.30;5.25;;;;;;;-3.35;100.00;97419.78;1224132;75;2914387;-64
2023/12/31 05:38:49;;;;;;;9.35;5.30;;;;;;;-3.45;100.00;97408.72;1223885;75;2923418;-63
2023/12/31 05:41:22;;;;;;;5.60;4.40;;;;;;;-3.35;100.00;97414.41;1224322;75;2920979;-64
2023/12/31 05:43:55;;;;;;;6.60;4.55;;;;;;;-3.28;100.00;97411.72;1224515;75;2927305;-63
2023/12/31 05:46:30;;;;;;;8.10;5.90;;;;;;;-3.63;100.00;97408.03;1223456;75;2925332;-61
2023/12/31 05:49:03;;;;;;;8.60;5.20;;;;;;;-3.35;100.00;97417.09;1223626;75;2917188;-63
2023/12/31 05:51:36;;;;;;;6.50;4.70;;;;;;;-3.38;100.00;97402.56;1223590;67;2918819;-62
2023/12/31 05:54:09;;;;;;;5.10;4.30;;;;;;;-3.33;100.00;97407.53;1223637;75;2923709;-64
2023/12/31 05:56:42;;;;;;;5.95;4.20;;;;;;;-3.41;100.00;97408.72;1224709;75;2919508;-64
2023/12/31 05:59:14;;;;;;;6.75;4.45;;;;;;;-3.38;100.00;97410.59;1224775;75;2917070;-62
2023/12/31 06:01:50;;;;;;;7.30;4.55;;;;;;;-3.34;100.00;97408.69;1223483;75;2923467;-65
2023/12/31 06:04:23;;;;;;;5.65;4.15;;;;;;;-3.34;100.00;97408.69;1224702;75;2923688;-63
2023/12/31 06:06:56;;;;;;;4.85;3.80;;;;;;;-3.37;100.00;97403.34;1224115;75;2920821;-63
2023/12/31 06:09:29;;;;;;;6.45;3.95;;;;;;;-3.33;100.00;97401.41;1223830;75;2933640;-64
2023/12/31 06:12:02;;;;;;;5.35;4.00;;;;;;;-3.56;100.00;97405.34;1223819;75;2933469;-63
2023/12/31 06:14:35;;;;;;;9.15;5.80;;;;;;;-3.64;100.00;97399.22;1223638;75;2917339;-62
2023/12/31 06:17:10;;;;;;;8.50;5.75;;;;;;;-3.38;100.00;97404.50;1223964;75;2924009;-63
2023/12/31 06:19:43;;;;;;;7.55;5.70;;;;;;;-3.54;100.00;97405.69;1224214;75;2920868;-64
2023/12/31 06:22:16;;;;;;;7.90;5.35;;;;;;;-3.39;100.00;97379.66;1224178;75;2921749;-64
2023/12/31 06:24:49;;;;;;;7.20;5.00;;;;;;;-3.35;100.00;97388.41;1223910;75;2929212;-66
2023/12/31 06:27:22;;;;;;;6.00;4.20;;;;;;;-3.28;100.00;97379.59;1223760;75;2914782;-67
2023/12/31 06:29:55;;;;;;;5.65;4.05;;;;;;;-3.23;100.00;97373.81;1223844;75;2926920;-65
2023/12/31 06:32:30;;;;;;;5.60;3.75;;;;;;;-3.25;100.00;97365.41;1223169;75;2930755;-66
2023/12/31 06:35:04;;;;;;;5.90;4.25;;;;;;;-3.21;100.00;97371.53;1224640;75;2922547;-64
2023/12/31 06:37:37;;;;;;;7.40;4.05;;;;;;;-3.16;100.00;97375.72;1224538;75;2926854;-62
2023/12/31 06:40:11;;;;;;;8.10;5.15;;;;;;;-3.14;100.00;97366.13;1224618;75;2917825;-63
2023/12/31 06:42:44;;;;;;;6.45;4.15;;;;;;;-3.04;100.00;97353.84;1224098;75;2920059;-63
2023/12/31 06:45:17;;;;;;;5.55;4.25;;;;;;;-3.06;100.00;97358.81;1224415;75;2923696;-65
2023/12/31 06:47:52;;;;;;;6.30;4.35;;;;;;;-3.11;100.00;97359.22;1224246;75;2922372;-62
2023/12/31 06:50:25;;;;;;;8.80;6.05;;;;;;;-3.14;100.00;97368.81;1223821;75;2920326;-61
2023/12/31 06:52:58;;;;;;;7.95;5.25;;;;;;;-3.05;100.00;97349.66;1221577;75;2932757;-64
2023/12/31 06:55:31;;;;;;;7.85;5.40;;;;;;;-2.97;100.00;97347.69;1219784;75;3148416;-64
2023/12/31 06:58:04;;;;;;;6.90;4.85;;;;;;;-2.82;100.00;97351.78;1223505;75;2921817;-64
2023/12/31 07:00:37;;;;;;;5.85;4.60;;;;;;;-2.73;100.00;97351.34;1223163;75;2944576;-63
2023/12/31 07:03:12;;;;;;;5.75;3.80;;;;;;;-2.66;100.00;97352.03;1223455;75;2926355;-66
2023/12/31 07:05:47;;;;;;;5.00;3.70;;;;;;;-2.58;100.00;97350.06;1223907;75;2948390;-63
2023/12/31 07:08:20;;;;;;;12.20;7.80;;;;;;;-2.67;100.00;97347.84;1224357;75;2922136;-62
2023/12/31 07:10:53;;;;;;;11.45;7.50;;;;;;;-2.64;100.00;97349.72;1223206;75;2915170;-61
2023/12/31 07:13:26;;;;;;;12.55;7.70;;;;;;;-2.59;100.00;97349.31;1223758;75;2922984;-61
2023/12/31 07:16:02;;;;;;;10.80;7.20;;;;;;;-2.33;100.00;97357.13;1221002;75;2935905;-63
2023/12/31 07:18:38;;;;;;;10.75;6.40;;;;;;;-2.28;100.00;97356.72;1224023;75;2916500;-62
2023/12/31 07:21:11;;;;;;;10.90;7.90;;;;;;;-2.15;100.00;97357.72;1223462;75;2920587;-65
2023/12/31 07:23:44;;;;;;;10.05;6.85;;;;;;;-2.15;100.00;97363.84;1222970;75;2961729;-64
2023/12/31 07:26:27;;;;;;;14.90;9.05;;;;;;;-2.24;100.00;97362.78;1224324;75;2936636;-64
2023/12/31 07:29:00;;;;;;;11.75;7.90;;;;;;;-2.22;100.00;97350.50;1224817;75;2928292;-62
2023/12/31 07:31:35;;;;;;;10.55;7.60;;;;;;;-1.98;100.00;97350.66;1225129;75;2931752;-65
2023/12/31 07:34:10;;;;;;;10.20;6.85;;;;;;;-1.92;100.00;97343.72;1224274;75;2924040;-64
2023/12/31 07:36:43;;;;;;;8.70;6.25;;;;;;;-1.74;100.00;97349.63;1225203;75;2933860;-66
2023/12/31 07:39:16;;;;;;;7.65;6.15;;;;;;;-1.57;100.00;97347.13;1225309;75;2916580;-63
2023/12/31 07:41:50;;;;;;;13.35;8.95;;;;;;;-1.41;100.00;97339.25;1223871;75;2925069;-65
2023/12/31 07:44:23;;;;;;;12.95;8.05;;;;;;;-1.22;100.00;97350.53;1225361;75;2919385;-62
2023/12/31 07:46:56;;;;;;;10.25;7.00;;;;;;;-1.08;100.00;97358.41;1224826;75;2922922;-62
2023/12/31 07:49:33;;;;;;;11.60;7.50;;;;;;;-0.33;100.00;97356.50;1225105;75;2916547;-64
2023/12/31 07:52:06;;;;;;;11.35;7.55;;;;;;;0.03;100.00;97342.44;1225402;75;2917346;-65
2023/12/31 07:54:39;;;;;;;10.30;7.65;;;;;;;0.72;100.00;97340.69;1223292;75;2920504;-65
2023/12/31 07:57:12;;;;;;;7.75;5.90;;;;;;;1.12;100.00;97327.09;1224731;75;2864581;-62
2023/12/31 07:59:46;;;;;;;7.35;5.95;;;;;;;1.02;100.00;97331.53;1218251;75;2918932;-65
2023/12/31 08:02:19;;;;;;;8.35;5.80;;;;;;;1.27;100.00;97335.59;1221595;75;2913850;-62
2023/12/31 08:04:55;;;;;;;10.50;7.10;;;;;;;0.78;100.00;97330.16;1222458;75;2921175;-66
2023/12/31 08:07:28;;;;;;;10.25;8.05;;;;;;;0.40;100.00;97344.75;1219581;75;2918913;-64
2023/12/31 08:10:01;;;;;;;11.90;9.65;;;;;;;0.71;100.00;97330.31;1221057;75;2920205;-62
2023/12/31 08:12:33;;;;;;;12.20;9.65;;;;;;;0.04;100.00;97335.88;1223486;75;2918025;-65
2023/12/31 08:15:08;;;;;;;12.80;10.50;;;;;;;0.79;100.00;97340.50;1220425;75;2918596;-65
2023/12/31 08:17:41;;;;;;;9.70;7.75;;;;;;;1.05;100.00;97333.38;1220471;75;2920802;-63
2023/12/31 08:20:17;;;;;;;8.40;6.70;;;;;;;1.11;100.00;97330.97;1218552;75;2925411;-64
2023/12/31 08:22:52;;;;;;;6.90;6.10;;;;;;;1.53;100.00;97320.34;1222846;75;2924282;-65
2023/12/31 08:25:25;;;;;;;9.35;6.55;;;;;;;1.47;100.00;97330.88;1218861;75;2917577;-62
2023/12/31 08:27:57;;;;;;;7.90;6.00;;;;;;;1.23;100.00;97327.59;1221114;75;2925783;-62
2023/12/31 08:30:30;;;;;;;9.35;6.95;;;;;;;0.96;100.00;97317.06;1219502;75;2919348;-63
2023/12/31 08:33:03;;;;;;;10.85;8.05;;;;;;;1.39;100.00;97326.06;1222823;75;2915645;-61
2023/12/31 08:35:39;;;;;;;9.85;7.60;;;;;;;1.27;100.00;97332.91;1220285;75;2926421;-61
2023/12/31 08:38:12;;;;;;;7.50;6.15;;;;;;;1.20;100.00;97327.69;1222623;75;2927611;-64
2023/12/31 08:40:44;;;;;;;7.85;6.05;;;;;;;1.76;100.00;97324.03;1217820;75;2919652;-63
2023/12/31 08:43:18;;;;;;;10.90;8.05;;;;;;;1.58;100.00;97316.38;1222360;75;2926194;-63
2023/12/31 08:45:51;;;;;;;8.30;6.50;;;;;;;1.66;100.00;97325.78;1219681;75;2916783;-66
2023/12/31 08:48:25;;;;;;;9.40;7.10;;;;;;;1.34;100.00;97327.34;1221141;75;2926792;-66
2023/12/31 08:51:00;;;;;;;9.85;7.65;;;;;;;1.23;100.00;97326.84;1212975;75;3246760;-65
2023/12/31 08:53:33;;;;;;;10.05;6.75;;;;;;;1.72;100.00;97323.34;1222111;75;2919686;-63
2023/12/31 08:56:06;;;;;;;10.95;7.55;;;;;;;1.42;100.00;97326.00;1191367;75;5252676;-63
2023/12/31 08:58:39;;;;;;;10.80;7.80;;;;;;;1.51;100.00;97330.78;1221393;83;2925436;-63
2023/12/31 09:01:12;;;;;;;9.95;7.25;;;;;;;1.81;100.00;97335.06;1219023;75;2929227;-63
2023/12/31 09:03:45;;;;;;;14.20;8.90;;;;;;;1.77;100.00;97334.38;1222698;75;2917543;-64
2023/12/31 09:06:21;;;;;;;12.60;9.40;;;;;;;1.83;100.00;97340.81;1219585;75;2934431;-63
2023/12/31 09:08:54;;;;;;;11.80;8.15;;;;;;;2.48;100.00;97333.69;1221893;75;2916793;-63
2023/12/31 09:11:27;;;;;;;11.95;7.80;;;;;;;2.67;100.00;97329.25;1222096;75;2924259;-64
2023/12/31 09:14:00;;;;;;;9.90;7.60;;;;;;;3.03;100.00;97326.28;1221714;75;2927450;-63
2023/12/31 09:16:33;;;;;;;10.80;7.85;;;;;;;3.57;100.00;97330.75;1222698;75;2915087;-63
2023/12/31 09:19:06;;;;;;;10.10;7.50;;;;;;;4.29;100.00;97314.81;1223417;75;2921321;-63
2023/12/31 09:21:41;;;;;;;9.30;6.75;;;;;;;5.12;94.13;97317.91;1221641;75;2937373;-62
2023/12/31 09:24:14;;;;;;;12.95;8.20;;;;;;;5.45;87.21;97309.28;1222851;75;2902757;-64
2023/12/31 09:26:47;;;;;;;11.15;7.85;;;;;;;6.18;85.44;97303.16;1220599;75;2922659;-63
2023/12/31 09:29:20;;;;;;;8.95;6.35;;;;;;;7.01;80.54;97308.41;1223577;75;2923774;-61
2023/12/31 09:31:53;;;;;;;8.85;5.90;;;;;;;7.30;76.84;97296.91;1222430;75;2922339;-63
2023/12/31 09:34:26;;;;;;;16.65;9.70;;;;;;;7.77;76.54;97302.81;1224782;75;2924580;-62
2023/12/31 09:37:01;;;;;;;15.60;9.70;;;;;;;8.90;70.47;97300.91;1220415;75;2924803;-62
2023/12/31 09:39:34;;;;;;;15.10;9.60;;;;;;;9.07;69.32;97289.47;1223454;75;2920352;-62
2023/12/31 09:42:15;;;;;;;13.60;8.60;;;;;;;9.96;65.85;97283.66;1222278;75;2926930;-63
2023/12/31 09:44:49;;;;;;;23.10;14.90;;;;;;;10.56;63.91;97279.31;1222347;75;2922712;-64
2023/12/31 09:47:23;;;;;;;17.85;11.25;;;;;;;10.65;62.10;97278.38;1224544;75;2917251;-66
2023/12/31 09:49:56;;;;;;;14.00;9.65;;;;;;;9.49;64.81;97278.13;1220717;75;2940340;-65
2023/12/31 09:52:35;;;;;;;11.35;7.85;;;;;;;10.83;63.32;97269.81;1223361;75;2923933;-64
2023/12/31 09:55:08;;;;;;;;;;;;;;;12.12;60.08;97269.72;1223353;75;2917972;-63
2023/12/31 09:57:43;;;;;;;11.35;7.85;;;;;;;12.33;57.58;97266.75;1224370;75;2915815;-63
2023/12/31 10:00:17;;;;;;;8.40;6.15;;;;;;;13.22;56.33;97271.47;1220690;75;2916071;-64
2023/12/31 10:02:51;;;;;;;7.75;5.50;;;;;;;14.79;53.45;97262.97;1224166;75;2922654;-62
2023/12/31 10:05:27;;;;;;;8.75;6.00;;;;;;;13.79;52.33;97265.84;1222376;75;2926183;-63
2023/12/31 10:08:05;;;;;;;8.45;5.80;;;;;;;14.12;52.37;97253.91;1224420;75;2921552;-62
2023/12/31 10:10:40;;;;;;;7.90;6.00;;;;;;;15.34;49.66;97239.66;1221341;75;2927340;-66
2023/12/31 10:13:18;;;;;;;8.50;5.80;;;;;;;17.36;46.30;97237.94;1223150;75;2918589;-64
2023/12/31 10:15:54;;;;;;;6.70;4.70;;;;;;;18.19;43.17;97236.03;1221660;75;2922550;-62
2023/12/31 10:18:28;;;;;;;7.25;4.90;;;;;;;21.19;40.17;97207.63;1224328;75;2914726;-65
2023/12/31 10:21:00;;;;;;;7.00;4.55;;;;;;;21.61;37.50;97209.97;1222070;75;2916284;-63
2023/12/31 10:23:36;;;;;;;5.65;3.95;;;;;;;22.24;36.89;97204.28;1223570;75;2926436;-63
2023/12/31 10:26:09;;;;;;;5.40;3.75;;;;;;;23.03;35.03;97215.06;1221481;75;2922072;-65
2023/12/31 10:28:42;;;;;;;6.05;4.45;;;;;;;23.35;34.50;97207.88;1223918;75;2928351;-62
2023/12/31 10:31:16;;;;;;;10.95;5.90;;;;;;;21.19;36.42;97208.38;1220760;75;2923662;-65
2023/12/31 10:33:49;;;;;;;9.25;6.50;;;;;;;21.67;36.02;97200.09;1223299;75;2938843;-63
2023/12/31 10:36:25;;;;;;;8.00;5.60;;;;;;;21.86;36.13;97204.47;1222495;75;2913491;-63
2023/12/31 10:39:01;;;;;;;9.15;6.70;;;;;;;17.16;41.48;97200.59;1223218;75;2928227;-63
2023/12/31 10:41:38;;;;;;;9.05;6.05;;;;;;;20.98;38.73;97216.19;1222040;75;2919674;-64
2023/12/31 10:44:16;;;;;;;7.10;4.30;;;;;;;17.90;41.64;97207.47;1224494;75;2921581;-64
2023/12/31 10:46:51;;;;;;;5.45;3.65;;;;;;;21.28;36.11;97184.78;1221256;75;2922508;-62
2023/12/31 10:49:29;;;;;;;4.65;3.25;;;;;;;21.44;35.57;97185.50;1224163;75;2912830;-62
2023/12/31 10:52:05;;;;;;;4.40;3.30;;;;;;;23.11;34.64;97167.53;1222245;75;2926738;-63
2023/12/31 10:54:48;;;;;;;4.80;3.00;;;;;;;22.13;35.19;97160.13;1223836;75;2921562;-67
2023/12/31 10:57:22;;;;;;;5.10;2.90;;;;;;;24.62;32.46;97156.28;1223092;75;2917175;-63
2023/12/31 10:59:58;;;;;;;5.75;3.85;;;;;;;22.30;34.18;97151.09;1221737;75;2923156;-63
2023/12/31 11:02:32;;;;;;;5.40;3.80;;;;;;;21.53;35.94;97137.56;1222703;75;2924294;-63
2023/12/31 11:05:07;;;;;;;6.95;4.75;;;;;;;21.17;36.11;97121.16;1222817;75;2917435;-66
2023/12/31 11:07:40;;;;;;;8.00;5.75;;;;;;;20.64;37.18;97117.94;1225151;75;2915608;-62
2023/12/31 11:10:17;;;;;;;8.65;5.20;;;;;;;20.19;37.46;97133.28;1222965;75;2922149;-65
2023/12/31 11:12:51;;;;;;;7.45;5.50;;;;;;;18.73;41.10;97134.69;1224922;75;2919715;-65
2023/12/31 11:15:27;;;;;;;7.00;4.70;;;;;;;17.07;42.78;97128.38;1222835;75;2919416;-62
2023/12/31 11:18:19;;;;;;;6.15;4.90;;;;;;;19.41;39.17;97114.19;1224433;75;2921973;-65
2023/12/31 11:21:26;;;;;;;5.20;3.85;;;;;;;20.75;37.91;97091.75;1223008;75;2934597;-64
2023/12/31 11:24:11;;;;;;;10.95;7.85;;;;;;;18.83;40.07;97076.72;1223632;75;2921123;-65
2023/12/31 11:26:47;;;;;;;8.15;5.20;;;;;;;19.50;39.23;97085.16;1223996;75;2913884;-62
2023/12/31 11:29:20;;;;;;;9.00;4.35;;;;;;;20.19;39.10;97074.91;1224403;75;2918069;-66
2023/12/31 11:31:53;;;;;;;8.05;4.50;;;;;;;20.57;38.52;97076.97;1223258;75;2924911;-63
2023/12/31 11:34:27;;;;;;;6.10;4.10;;;;;;;20.17;38.26;97071.94;1225858;83;2914513;-65
2023/12/31 11:37:04;;;;;;;5.35;3.65;;;;;;;17.70;41.57;97070.44;1222860;75;2922659;-67
2023/12/31 11:39:37;;;;;;;6.00;4.10;;;;;;;16.64;43.48;97069.31;1225290;75;2933911;-64